createdAt,value
2022-10-28T00:00:04.121Z,998.31
2022-10-28T00:00:14.620Z,998.30
2022-10-28T00:00:25.140Z,998.30
2022-10-28T00:00:35.657Z,998.31
2022-10-28T00:00:46.171Z,998.31
2022-10-28T00:00:56.693Z,998.30
2022-10-28T00:01:07.415Z,998.30
2022-10-28T00:01:17.833Z,998.30
2022-10-28T00:01:28.285Z,998.30
2022-10-28T00:01:38.800Z,998.30
2022-10-28T00:01:49.347Z,998.29
2022-10-28T00:02:00.015Z,998.29
2022-10-28T00:02:10.395Z,998.29
2022-10-28T00:02:20.873Z,998.29
2022-10-28T00:02:31.402Z,998.28
2022-10-28T00:02:41.886Z,998.28
2022-10-28T00:02:52.826Z,998.27
2022-10-28T00:03:03.036Z,998.28
2022-10-28T00:03:13.417Z,998.29
2022-10-28T00:03:23.935Z,998.29
2022-10-28T00:03:34.451Z,998.29
2022-10-28T00:03:44.971Z,998.29
2022-10-28T00:03:55.492Z,998.28
2022-10-28T00:04:06.010Z,998.27
2022-10-28T00:04:16.639Z,998.27
2022-10-28T00:04:27.109Z,998.26
2022-10-28T00:04:37.555Z,998.27
2022-10-28T00:04:48.073Z,998.26
2022-10-28T00:04:58.593Z,998.26
2022-10-28T00:05:09.118Z,998.26
2022-10-28T00:05:19.632Z,998.25
2022-10-28T00:05:30.148Z,998.25
2022-10-28T00:05:40.670Z,998.25
2022-10-28T00:05:51.171Z,998.25
2022-10-28T00:06:01.727Z,998.25
2022-10-28T00:06:12.240Z,998.25
2022-10-28T00:06:22.733Z,998.25
2022-10-28T00:06:33.260Z,998.25
2022-10-28T00:06:43.770Z,998.24
2022-10-28T00:06:54.287Z,998.24
2022-10-28T00:07:04.794Z,998.24
2022-10-28T00:07:15.309Z,998.24
2022-10-28T00:07:25.832Z,998.23
2022-10-28T00:07:36.354Z,998.23
2022-10-28T00:07:46.861Z,998.23
2022-10-28T00:07:57.390Z,998.23
2022-10-28T00:08:07.896Z,998.23
2022-10-28T00:08:18.412Z,998.23
2022-10-28T00:08:28.945Z,998.23
2022-10-28T00:08:39.449Z,998.23
2022-10-28T00:08:50.015Z,998.23
2022-10-28T00:09:00.481Z,998.23
2022-10-28T00:09:12.286Z,998.24
2022-10-28T00:09:21.514Z,998.24
2022-10-28T00:09:32.036Z,998.26
2022-10-28T00:09:42.548Z,998.27
2022-10-28T00:09:53.067Z,998.28
2022-10-28T00:10:03.582Z,998.29
2022-10-28T00:10:14.124Z,998.30
2022-10-28T00:10:24.617Z,998.31
2022-10-28T00:10:35.135Z,998.33
2022-10-28T00:10:45.647Z,998.35
2022-10-28T00:10:56.167Z,998.36
2022-10-28T00:11:06.681Z,998.38
2022-10-28T00:11:17.197Z,998.39
2022-10-28T00:11:27.712Z,998.40
2022-10-28T00:11:38.235Z,998.42
2022-10-28T00:11:48.745Z,998.43
2022-10-28T00:11:59.265Z,998.44
2022-10-28T00:12:09.775Z,998.44
2022-10-28T00:12:20.293Z,998.44
2022-10-28T00:12:30.815Z,998.43
2022-10-28T00:12:41.327Z,998.42
2022-10-28T00:12:51.842Z,998.42
2022-10-28T00:13:02.363Z,998.41
2022-10-28T00:13:12.877Z,998.41
2022-10-28T00:13:23.399Z,998.41
2022-10-28T00:13:33.921Z,998.41
2022-10-28T00:13:44.444Z,998.40
2022-10-28T00:13:54.997Z,998.39
2022-10-28T00:14:05.469Z,998.38
2022-10-28T00:14:15.987Z,998.38
2022-10-28T00:14:26.501Z,998.38
2022-10-28T00:14:37.023Z,998.37
2022-10-28T00:14:47.555Z,998.36
2022-10-28T00:14:58.060Z,998.36
2022-10-28T00:15:08.587Z,998.36
2022-10-28T00:15:19.093Z,998.35
2022-10-28T00:15:29.614Z,998.35
2022-10-28T00:15:40.130Z,998.35
2022-10-28T00:15:50.648Z,998.36
2022-10-28T00:16:01.157Z,998.37
2022-10-28T00:16:11.679Z,998.38
2022-10-28T00:16:22.236Z,998.38
2022-10-28T00:16:32.715Z,998.40
2022-10-28T00:16:43.226Z,998.40
2022-10-28T00:16:53.746Z,998.40
2022-10-28T00:17:04.259Z,998.39
2022-10-28T00:17:14.838Z,998.38
2022-10-28T00:17:25.301Z,998.37
2022-10-28T00:17:35.817Z,998.36
2022-10-28T00:17:46.327Z,998.36
2022-10-28T00:17:56.845Z,998.35
2022-10-28T00:18:07.358Z,998.34
2022-10-28T00:18:17.893Z,998.33
2022-10-28T00:18:28.420Z,998.32
2022-10-28T00:18:38.915Z,998.31
2022-10-28T00:18:49.420Z,998.30
2022-10-28T00:18:59.936Z,998.29
2022-10-28T00:19:10.452Z,998.29
2022-10-28T00:19:20.974Z,998.28
2022-10-28T00:19:31.491Z,998.28
2022-10-28T00:19:42.005Z,998.28
2022-10-28T00:19:52.525Z,998.27
2022-10-28T00:20:03.036Z,998.27
2022-10-28T00:20:13.556Z,998.26
2022-10-28T00:20:24.071Z,998.26
2022-10-28T00:20:34.604Z,998.25
2022-10-28T00:20:45.103Z,998.25
2022-10-28T00:20:55.623Z,998.24
2022-10-28T00:21:06.157Z,998.23
2022-10-28T00:21:16.664Z,998.23
2022-10-28T00:21:27.170Z,998.23
2022-10-28T00:21:37.695Z,998.22
2022-10-28T00:21:48.201Z,998.22
2022-10-28T00:21:58.749Z,998.22
2022-10-28T00:22:09.238Z,998.21
2022-10-28T00:22:19.753Z,998.21
2022-10-28T00:22:30.272Z,998.21
2022-10-28T00:22:40.781Z,998.21
2022-10-28T00:22:51.301Z,998.21
2022-10-28T00:23:01.820Z,998.22
2022-10-28T00:23:12.360Z,998.21
2022-10-28T00:23:22.843Z,998.21
2022-10-28T00:23:33.364Z,998.21
2022-10-28T00:23:43.887Z,998.21
2022-10-28T00:23:54.431Z,998.21
2022-10-28T00:24:04.928Z,998.21
2022-10-28T00:24:15.419Z,998.21
2022-10-28T00:24:25.957Z,998.20
2022-10-28T00:24:36.462Z,998.19
2022-10-28T00:24:46.970Z,998.19
2022-10-28T00:24:57.488Z,998.19
2022-10-28T00:25:08.010Z,998.19
2022-10-28T00:25:18.521Z,998.19
2022-10-28T00:25:29.041Z,998.18
2022-10-28T00:25:39.576Z,998.16
2022-10-28T00:25:50.082Z,998.16
2022-10-28T00:26:00.602Z,998.15
2022-10-28T00:26:11.106Z,998.15
2022-10-28T00:26:21.623Z,998.16
2022-10-28T00:26:32.135Z,998.16
2022-10-28T00:26:42.652Z,998.15
2022-10-28T00:26:53.180Z,998.16
2022-10-28T00:27:03.690Z,998.17
2022-10-28T00:27:14.214Z,998.17
2022-10-28T00:27:24.727Z,998.16
2022-10-28T00:27:35.240Z,998.16
2022-10-28T00:27:45.752Z,998.16
2022-10-28T00:27:56.501Z,998.15
2022-10-28T00:28:06.785Z,998.14
2022-10-28T00:28:17.304Z,998.15
2022-10-28T00:28:27.811Z,998.16
2022-10-28T00:28:38.332Z,998.16
2022-10-28T00:28:48.852Z,998.17
2022-10-28T00:28:59.370Z,998.16
2022-10-28T00:29:09.885Z,998.15
2022-10-28T00:29:20.398Z,998.14
2022-10-28T00:29:30.939Z,998.13
2022-10-28T00:29:41.424Z,998.12
2022-10-28T00:29:51.939Z,998.11
2022-10-28T00:30:02.487Z,998.11
2022-10-28T00:30:12.979Z,998.11
2022-10-28T00:30:23.537Z,998.11
2022-10-28T00:30:34.015Z,998.11
2022-10-28T00:30:44.523Z,998.11
2022-10-28T00:30:55.037Z,998.11
2022-10-28T00:31:05.551Z,998.10
2022-10-28T00:31:16.069Z,998.10
2022-10-28T00:31:26.583Z,998.10
2022-10-28T00:31:37.099Z,998.11
2022-10-28T00:31:47.612Z,998.12
2022-10-28T00:31:58.129Z,998.14
2022-10-28T00:32:08.651Z,998.15
2022-10-28T00:32:19.169Z,998.17
2022-10-28T00:32:29.688Z,998.18
2022-10-28T00:32:40.199Z,998.19
2022-10-28T00:32:50.916Z,998.20
2022-10-28T00:33:01.229Z,998.20
2022-10-28T00:33:11.753Z,998.21
2022-10-28T00:33:22.257Z,998.22
2022-10-28T00:33:32.783Z,998.22
2022-10-28T00:33:43.305Z,998.22
2022-10-28T00:33:53.814Z,998.21
2022-10-28T00:34:04.321Z,998.21
2022-10-28T00:34:14.839Z,998.22
2022-10-28T00:34:25.357Z,998.21
2022-10-28T00:34:35.903Z,998.21
2022-10-28T00:34:46.395Z,998.20
2022-10-28T00:34:56.904Z,998.18
2022-10-28T00:35:07.455Z,998.17
2022-10-28T00:35:17.945Z,998.16
2022-10-28T00:35:28.447Z,998.15
2022-10-28T00:35:38.993Z,998.15
2022-10-28T00:35:49.476Z,998.14
2022-10-28T00:36:02.217Z,998.12
2022-10-28T00:36:10.529Z,998.12
2022-10-28T00:36:21.022Z,998.11
2022-10-28T00:36:31.547Z,998.11
2022-10-28T00:36:42.074Z,998.10
2022-10-28T00:36:52.568Z,998.10
2022-10-28T00:37:03.088Z,998.09
2022-10-28T00:37:13.602Z,998.08
2022-10-28T00:37:24.117Z,998.08
2022-10-28T00:37:34.635Z,998.07
2022-10-28T00:37:45.154Z,998.07
2022-10-28T00:37:55.658Z,998.06
2022-10-28T00:38:06.173Z,998.07
2022-10-28T00:38:16.691Z,998.08
2022-10-28T00:38:27.203Z,998.08
2022-10-28T00:38:37.725Z,998.10
2022-10-28T00:38:48.246Z,998.11
2022-10-28T00:38:58.755Z,998.12
2022-10-28T00:39:09.264Z,998.13
2022-10-28T00:39:19.780Z,998.14
2022-10-28T00:39:30.297Z,998.13
2022-10-28T00:39:40.823Z,998.14
2022-10-28T00:39:51.329Z,998.15
2022-10-28T00:40:01.853Z,998.14
2022-10-28T00:40:12.360Z,998.14
2022-10-28T00:40:22.875Z,998.15
2022-10-28T00:40:33.391Z,998.14
2022-10-28T00:40:43.910Z,998.14
2022-10-28T00:40:54.432Z,998.15
2022-10-28T00:41:04.947Z,998.16
2022-10-28T00:41:15.464Z,998.17
2022-10-28T00:41:25.973Z,998.18
2022-10-28T00:41:36.519Z,998.18
2022-10-28T00:41:47.003Z,998.19
2022-10-28T00:41:57.517Z,998.20
2022-10-28T00:42:08.033Z,998.21
2022-10-28T00:42:18.551Z,998.21
2022-10-28T00:42:29.068Z,998.20
2022-10-28T00:42:39.588Z,998.20
2022-10-28T00:42:50.353Z,998.19
2022-10-28T00:43:00.619Z,998.17
2022-10-28T00:43:11.133Z,998.16
2022-10-28T00:43:21.692Z,998.15
2022-10-28T00:43:32.163Z,998.13
2022-10-28T00:43:42.683Z,998.12
2022-10-28T00:43:53.192Z,998.12
2022-10-28T00:44:03.712Z,998.12
2022-10-28T00:44:14.223Z,998.13
2022-10-28T00:44:24.758Z,998.14
2022-10-28T00:44:35.261Z,998.16
2022-10-28T00:44:45.775Z,998.18
2022-10-28T00:44:56.290Z,998.20
2022-10-28T00:45:06.802Z,998.22
2022-10-28T00:45:17.318Z,998.24
2022-10-28T00:45:27.832Z,998.25
2022-10-28T00:45:38.353Z,998.26
2022-10-28T00:45:48.862Z,998.25
2022-10-28T00:45:59.377Z,998.24
2022-10-28T00:46:09.894Z,998.22
2022-10-28T00:46:20.438Z,998.21
2022-10-28T00:46:30.933Z,998.19
2022-10-28T00:46:41.495Z,998.17
2022-10-28T00:46:51.958Z,998.16
2022-10-28T00:47:02.469Z,998.15
2022-10-28T00:47:12.988Z,998.15
2022-10-28T00:47:23.506Z,998.14
2022-10-28T00:47:34.018Z,998.11
2022-10-28T00:47:44.545Z,998.11
2022-10-28T00:47:55.763Z,998.10
2022-10-28T00:48:05.565Z,998.09
2022-10-28T00:48:16.080Z,998.07
2022-10-28T00:48:26.634Z,998.06
2022-10-28T00:48:37.113Z,998.05
2022-10-28T00:48:47.631Z,998.04
2022-10-28T00:48:58.150Z,998.04
2022-10-28T00:49:08.655Z,998.03
2022-10-28T00:49:19.177Z,998.03
2022-10-28T00:49:29.688Z,998.03
2022-10-28T00:49:40.205Z,998.03
2022-10-28T00:49:50.723Z,998.03
2022-10-28T00:50:01.237Z,998.04
2022-10-28T00:50:11.746Z,998.05
2022-10-28T00:50:22.264Z,998.05
2022-10-28T00:50:32.780Z,998.05
2022-10-28T00:50:43.305Z,998.05
2022-10-28T00:50:53.814Z,998.05
2022-10-28T00:51:04.325Z,998.05
2022-10-28T00:51:14.860Z,998.04
2022-10-28T00:51:25.357Z,998.04
2022-10-28T00:51:35.883Z,998.03
2022-10-28T00:51:46.425Z,998.02
2022-10-28T00:51:56.944Z,998.03
2022-10-28T00:52:07.429Z,998.02
2022-10-28T00:52:17.946Z,998.02
2022-10-28T00:52:28.449Z,998.02
2022-10-28T00:52:38.971Z,998.03
2022-10-28T00:52:49.489Z,998.03
2022-10-28T00:53:00.007Z,998.03
2022-10-28T00:53:10.514Z,998.04
2022-10-28T00:53:21.031Z,998.05
2022-10-28T00:53:31.541Z,998.06
2022-10-28T00:53:42.060Z,998.06
2022-10-28T00:53:52.572Z,998.06
2022-10-28T00:54:03.089Z,998.06
2022-10-28T00:54:13.617Z,998.06
2022-10-28T00:54:24.113Z,998.06
2022-10-28T00:54:34.631Z,998.06
2022-10-28T00:54:45.152Z,998.05
2022-10-28T00:54:55.661Z,998.05
2022-10-28T00:55:06.179Z,998.04
2022-10-28T00:55:16.692Z,998.05
2022-10-28T00:55:27.212Z,998.05
2022-10-28T00:55:37.718Z,998.05
2022-10-28T00:55:48.241Z,998.05
2022-10-28T00:55:58.752Z,998.04
2022-10-28T00:56:09.274Z,998.03
2022-10-28T00:56:19.905Z,998.03
2022-10-28T00:56:30.301Z,998.01
2022-10-28T00:56:40.815Z,998.01
2022-10-28T00:56:51.334Z,998.00
2022-10-28T00:57:01.872Z,997.99
2022-10-28T00:57:12.373Z,997.98
2022-10-28T00:57:22.876Z,997.97
2022-10-28T00:57:33.398Z,997.96
2022-10-28T00:57:43.907Z,997.96
2022-10-28T00:57:54.731Z,997.95
2022-10-28T00:58:04.949Z,997.95
2022-10-28T00:58:15.472Z,997.94
2022-10-28T00:58:25.974Z,997.93
2022-10-28T00:58:36.491Z,997.93
2022-10-28T00:58:47.005Z,997.93
2022-10-28T00:58:57.523Z,997.94
2022-10-28T00:59:08.037Z,997.93
2022-10-28T00:59:18.554Z,997.93
2022-10-28T00:59:29.067Z,997.93
2022-10-28T00:59:39.581Z,997.93
2022-10-28T00:59:50.094Z,997.92
2022-10-28T01:00:00.618Z,997.92
2022-10-28T01:00:11.148Z,997.92
2022-10-28T01:00:21.645Z,997.92
2022-10-28T01:00:32.155Z,997.92
2022-10-28T01:00:42.673Z,997.92
2022-10-28T01:00:53.191Z,997.92
2022-10-28T01:01:03.732Z,997.92
2022-10-28T01:01:14.283Z,997.92
2022-10-28T01:01:24.900Z,997.93
2022-10-28T01:01:35.378Z,997.94
2022-10-28T01:01:45.931Z,997.95
2022-10-28T01:01:56.408Z,997.96
2022-10-28T01:02:06.915Z,997.97
2022-10-28T01:02:17.440Z,997.97
2022-10-28T01:02:27.877Z,997.98
2022-10-28T01:02:38.398Z,997.98
2022-10-28T01:02:48.913Z,997.97
2022-10-28T01:02:59.412Z,997.96
2022-10-28T01:03:09.907Z,997.96
2022-10-28T01:03:20.428Z,997.96
2022-10-28T01:03:30.939Z,997.96
2022-10-28T01:03:41.449Z,997.96
2022-10-28T01:03:51.975Z,997.95
2022-10-28T01:04:02.486Z,997.94
2022-10-28T01:04:13.006Z,997.94
2022-10-28T01:04:23.517Z,997.92
2022-10-28T01:04:34.031Z,997.91
2022-10-28T01:04:44.543Z,997.89
2022-10-28T01:04:55.086Z,997.88
2022-10-28T01:05:05.587Z,997.87
2022-10-28T01:05:16.102Z,997.87
2022-10-28T01:05:26.616Z,997.86
2022-10-28T01:05:37.130Z,997.86
2022-10-28T01:05:47.654Z,997.86
2022-10-28T01:05:58.177Z,997.86
2022-10-28T01:06:08.725Z,997.85
2022-10-28T01:06:19.213Z,997.84
2022-10-28T01:06:29.711Z,997.83
2022-10-28T01:06:40.230Z,997.83
2022-10-28T01:06:50.767Z,997.82
2022-10-28T01:07:01.260Z,997.82
2022-10-28T01:07:11.775Z,997.82
2022-10-28T01:07:22.286Z,997.82
2022-10-28T01:07:32.805Z,997.83
2022-10-28T01:07:43.316Z,997.83
2022-10-28T01:07:54.117Z,997.83
2022-10-28T01:08:04.350Z,997.84
2022-10-28T01:08:14.885Z,997.84
2022-10-28T01:08:25.380Z,997.84
2022-10-28T01:08:35.896Z,997.84
2022-10-28T01:08:46.417Z,997.84
2022-10-28T01:08:59.928Z,997.84
2022-10-28T01:09:07.449Z,997.84
2022-10-28T01:09:18.009Z,997.84
2022-10-28T01:09:28.480Z,997.84
2022-10-28T01:09:38.996Z,997.84
2022-10-28T01:09:49.514Z,997.85
2022-10-28T01:10:00.019Z,997.85
2022-10-28T01:10:10.538Z,997.85
2022-10-28T01:10:21.058Z,997.85
2022-10-28T01:10:31.573Z,997.86
2022-10-28T01:10:42.084Z,997.85
2022-10-28T01:10:52.608Z,997.85
2022-10-28T01:11:03.120Z,997.84
2022-10-28T01:11:13.635Z,997.84
2022-10-28T01:11:24.149Z,997.84
2022-10-28T01:11:34.666Z,997.83
2022-10-28T01:11:45.182Z,997.84
2022-10-28T01:11:55.701Z,997.84
2022-10-28T01:12:06.217Z,997.84
2022-10-28T01:12:16.735Z,997.84
2022-10-28T01:12:27.252Z,997.83
2022-10-28T01:12:37.769Z,997.84
2022-10-28T01:12:48.283Z,997.84
2022-10-28T01:12:58.862Z,997.84
2022-10-28T01:13:09.317Z,997.85
2022-10-28T01:13:19.849Z,997.86
2022-10-28T01:13:30.352Z,997.87
2022-10-28T01:13:40.864Z,997.88
2022-10-28T01:13:51.385Z,997.88
2022-10-28T01:14:01.904Z,997.89
2022-10-28T01:14:12.419Z,997.90
2022-10-28T01:14:22.931Z,997.91
2022-10-28T01:14:33.452Z,997.92
2022-10-28T01:14:43.965Z,997.93
2022-10-28T01:14:54.488Z,997.95
2022-10-28T01:15:05.005Z,997.97
2022-10-28T01:15:15.512Z,997.99
2022-10-28T01:15:26.033Z,998.00
2022-10-28T01:15:36.541Z,998.01
2022-10-28T01:15:47.065Z,998.03
2022-10-28T01:15:57.583Z,998.04
2022-10-28T01:16:08.096Z,998.05
2022-10-28T01:16:18.609Z,998.06
2022-10-28T01:16:29.131Z,998.07
2022-10-28T01:16:39.649Z,998.08
2022-10-28T01:16:50.160Z,998.08
2022-10-28T01:17:00.675Z,998.08
2022-10-28T01:17:11.195Z,998.07
2022-10-28T01:17:21.711Z,998.06
2022-10-28T01:17:32.246Z,998.05
2022-10-28T01:17:42.745Z,998.03
2022-10-28T01:17:53.261Z,998.02
2022-10-28T01:18:03.814Z,998.01
2022-10-28T01:18:14.335Z,997.99
2022-10-28T01:18:24.813Z,997.98
2022-10-28T01:18:35.332Z,997.97
2022-10-28T01:18:45.841Z,997.96
2022-10-28T01:18:56.363Z,997.95
2022-10-28T01:19:06.885Z,997.94
2022-10-28T01:19:17.399Z,997.93
2022-10-28T01:19:27.908Z,997.93
2022-10-28T01:19:38.429Z,997.92
2022-10-28T01:19:48.947Z,997.92
2022-10-28T01:19:59.470Z,997.92
2022-10-28T01:20:09.976Z,997.93
2022-10-28T01:20:20.506Z,997.95
2022-10-28T01:20:32.300Z,997.97
2022-10-28T01:20:42.501Z,998.00
2022-10-28T01:20:52.070Z,998.02
2022-10-28T01:21:02.566Z,998.05
2022-10-28T01:21:13.084Z,998.07
2022-10-28T01:21:23.622Z,998.10
2022-10-28T01:21:34.112Z,998.12
2022-10-28T01:21:44.647Z,998.14
2022-10-28T01:21:55.161Z,998.15
2022-10-28T01:22:05.667Z,998.16
2022-10-28T01:22:16.191Z,998.16
2022-10-28T01:22:26.773Z,998.16
2022-10-28T01:22:37.210Z,998.16
2022-10-28T01:22:47.733Z,998.16
2022-10-28T01:22:58.255Z,998.15
2022-10-28T01:23:08.765Z,998.15
2022-10-28T01:23:19.318Z,998.16
2022-10-28T01:23:29.796Z,998.15
2022-10-28T01:23:40.325Z,998.15
2022-10-28T01:23:50.838Z,998.14
2022-10-28T01:24:01.347Z,998.12
2022-10-28T01:24:11.865Z,998.10
2022-10-28T01:24:22.384Z,998.09
2022-10-28T01:24:32.902Z,998.08
2022-10-28T01:24:43.413Z,998.06
2022-10-28T01:24:53.940Z,998.05
2022-10-28T01:25:04.446Z,998.05
2022-10-28T01:25:14.970Z,998.05
2022-10-28T01:25:25.501Z,998.05
2022-10-28T01:25:36.004Z,998.05
2022-10-28T01:25:46.523Z,998.05
2022-10-28T01:25:57.044Z,998.05
2022-10-28T01:26:07.582Z,998.04
2022-10-28T01:26:18.078Z,998.04
2022-10-28T01:26:28.600Z,998.03
2022-10-28T01:26:39.128Z,998.03
2022-10-28T01:26:49.635Z,998.02
2022-10-28T01:27:00.161Z,998.02
2022-10-28T01:27:10.670Z,998.01
2022-10-28T01:27:21.190Z,998.00
2022-10-28T01:27:31.714Z,998.00
2022-10-28T01:27:42.233Z,998.00
2022-10-28T01:27:52.748Z,998.00
2022-10-28T01:28:03.279Z,998.01
2022-10-28T01:28:13.774Z,998.00
2022-10-28T01:28:24.300Z,998.01
2022-10-28T01:28:34.815Z,998.01
2022-10-28T01:28:45.336Z,998.01
2022-10-28T01:28:55.844Z,998.00
2022-10-28T01:29:06.369Z,998.01
2022-10-28T01:29:16.885Z,998.00
2022-10-28T01:29:27.394Z,997.99
2022-10-28T01:29:37.921Z,997.99
2022-10-28T01:29:48.430Z,997.99
2022-10-28T01:29:58.943Z,997.99
2022-10-28T01:30:09.462Z,997.99
2022-10-28T01:30:19.977Z,997.99
2022-10-28T01:30:30.493Z,997.99
2022-10-28T01:30:41.009Z,997.99
2022-10-28T01:30:51.531Z,997.99
2022-10-28T01:31:02.041Z,998.00
2022-10-28T01:31:12.597Z,997.99
2022-10-28T01:31:23.077Z,997.99
2022-10-28T01:31:33.594Z,997.99
2022-10-28T01:31:44.109Z,997.98
2022-10-28T01:31:54.634Z,997.98
2022-10-28T01:32:05.144Z,997.98
2022-10-28T01:32:15.661Z,997.98
2022-10-28T01:32:26.176Z,997.98
2022-10-28T01:32:36.702Z,997.98
2022-10-28T01:32:47.217Z,997.97
2022-10-28T01:32:57.739Z,997.96
2022-10-28T01:33:08.248Z,997.95
2022-10-28T01:33:18.764Z,997.94
2022-10-28T01:33:29.282Z,997.94
2022-10-28T01:33:39.804Z,997.93
2022-10-28T01:33:50.310Z,997.93
2022-10-28T01:34:00.831Z,997.92
2022-10-28T01:34:11.348Z,997.93
2022-10-28T01:34:21.873Z,997.93
2022-10-28T01:34:32.383Z,997.93
2022-10-28T01:34:42.899Z,997.94
2022-10-28T01:34:53.417Z,997.94
2022-10-28T01:35:03.941Z,997.94
2022-10-28T01:35:14.456Z,997.95
2022-10-28T01:35:25.089Z,997.95
2022-10-28T01:35:35.508Z,997.95
2022-10-28T01:35:46.000Z,997.94
2022-10-28T01:35:56.512Z,997.93
2022-10-28T01:36:07.036Z,997.92
2022-10-28T01:36:17.542Z,997.91
2022-10-28T01:36:28.181Z,997.92
2022-10-28T01:36:38.576Z,997.92
2022-10-28T01:36:49.097Z,997.93
2022-10-28T01:36:59.615Z,997.94
2022-10-28T01:37:10.135Z,997.95
2022-10-28T01:37:20.645Z,997.96
2022-10-28T01:37:31.163Z,997.96
2022-10-28T01:37:41.677Z,997.96
2022-10-28T01:37:52.574Z,997.95
2022-10-28T01:38:02.716Z,997.95
2022-10-28T01:38:13.225Z,997.95
2022-10-28T01:38:23.753Z,997.94
2022-10-28T01:38:34.262Z,997.94
2022-10-28T01:38:44.778Z,997.94
2022-10-28T01:38:55.303Z,997.95
2022-10-28T01:39:05.828Z,997.97
2022-10-28T01:39:16.334Z,997.98
2022-10-28T01:39:26.850Z,997.98
2022-10-28T01:39:37.368Z,997.99
2022-10-28T01:39:47.893Z,998.00
2022-10-28T01:39:58.405Z,998.00
2022-10-28T01:40:08.921Z,997.99
2022-10-28T01:40:19.442Z,997.99
2022-10-28T01:40:29.987Z,998.00
2022-10-28T01:40:40.479Z,998.00
2022-10-28T01:40:51.014Z,998.01
2022-10-28T01:41:01.514Z,998.01
2022-10-28T01:41:12.034Z,998.00
2022-10-28T01:41:22.557Z,997.99
2022-10-28T01:41:33.064Z,997.99
2022-10-28T01:41:43.593Z,997.98
2022-10-28T01:41:54.107Z,997.97
2022-10-28T01:42:04.621Z,997.96
2022-10-28T01:42:15.138Z,997.95
2022-10-28T01:42:25.689Z,997.95
2022-10-28T01:42:36.171Z,997.94
2022-10-28T01:42:46.687Z,997.93
2022-10-28T01:42:57.207Z,997.92
2022-10-28T01:43:07.725Z,997.92
2022-10-28T01:43:18.246Z,997.92
2022-10-28T01:43:28.759Z,997.92
2022-10-28T01:43:39.278Z,997.93
2022-10-28T01:43:49.792Z,997.94
2022-10-28T01:44:00.315Z,997.95
2022-10-28T01:44:10.829Z,997.95
2022-10-28T01:44:21.347Z,997.94
2022-10-28T01:44:31.860Z,997.93
2022-10-28T01:44:42.386Z,997.92
2022-10-28T01:44:52.894Z,997.91
2022-10-28T01:45:03.416Z,997.91
2022-10-28T01:45:13.931Z,997.91
2022-10-28T01:45:24.447Z,997.90
2022-10-28T01:45:35.002Z,997.89
2022-10-28T01:45:45.541Z,997.89
2022-10-28T01:45:55.996Z,997.88
2022-10-28T01:46:06.515Z,997.89
2022-10-28T01:46:17.029Z,997.89
2022-10-28T01:46:27.541Z,997.89
2022-10-28T01:46:38.057Z,997.89
2022-10-28T01:46:48.587Z,997.88
2022-10-28T01:46:59.097Z,997.87
2022-10-28T01:47:09.614Z,997.87
2022-10-28T01:47:20.134Z,997.87
2022-10-28T01:47:30.648Z,997.86
2022-10-28T01:47:41.167Z,997.85
2022-10-28T01:47:51.933Z,997.84
2022-10-28T01:48:02.205Z,997.84
2022-10-28T01:48:12.719Z,997.83
2022-10-28T01:48:23.231Z,997.83
2022-10-28T01:48:33.794Z,997.83
2022-10-28T01:48:44.264Z,997.83
2022-10-28T01:48:54.782Z,997.83
2022-10-28T01:49:05.315Z,997.83
2022-10-28T01:49:15.822Z,997.83
2022-10-28T01:49:26.341Z,997.83
2022-10-28T01:49:36.855Z,997.82
2022-10-28T01:49:47.370Z,997.81
2022-10-28T01:49:57.892Z,997.81
2022-10-28T01:50:08.408Z,997.81
2022-10-28T01:50:18.930Z,997.81
2022-10-28T01:50:29.444Z,997.81
2022-10-28T01:50:39.974Z,997.81
2022-10-28T01:50:50.517Z,997.82
2022-10-28T01:51:01.004Z,997.83
2022-10-28T01:51:11.527Z,997.84
2022-10-28T01:51:22.042Z,997.86
2022-10-28T01:51:32.576Z,997.87
2022-10-28T01:51:43.090Z,997.88
2022-10-28T01:51:53.600Z,997.88
2022-10-28T01:52:04.111Z,997.89
2022-10-28T01:52:14.620Z,997.89
2022-10-28T01:52:25.147Z,997.88
2022-10-28T01:52:35.665Z,997.88
2022-10-28T01:52:46.203Z,997.86
2022-10-28T01:52:56.694Z,997.86
2022-10-28T01:53:07.208Z,997.86
2022-10-28T01:53:17.728Z,997.85
2022-10-28T01:53:28.244Z,997.85
2022-10-28T01:53:38.761Z,997.83
2022-10-28T01:53:49.271Z,997.82
2022-10-28T01:53:59.790Z,997.81
2022-10-28T01:54:10.307Z,997.80
2022-10-28T01:54:20.830Z,997.81
2022-10-28T01:54:31.349Z,997.80
2022-10-28T01:54:41.862Z,997.80
2022-10-28T01:54:52.390Z,997.81
2022-10-28T01:55:02.897Z,997.79
2022-10-28T01:55:13.407Z,997.78
2022-10-28T01:55:23.927Z,997.78
2022-10-28T01:55:34.436Z,997.79
2022-10-28T01:55:44.955Z,997.79
2022-10-28T01:55:55.472Z,997.79
2022-10-28T01:56:05.991Z,997.78
2022-10-28T01:56:16.510Z,997.78
2022-10-28T01:56:27.023Z,997.79
2022-10-28T01:56:37.551Z,997.79
2022-10-28T01:56:48.064Z,997.78
2022-10-28T01:56:58.579Z,997.78
2022-10-28T01:57:09.091Z,997.78
2022-10-28T01:57:19.608Z,997.78
2022-10-28T01:57:30.129Z,997.78
2022-10-28T01:57:40.672Z,997.78
2022-10-28T01:57:51.163Z,997.79
2022-10-28T01:58:01.677Z,997.79
2022-10-28T01:58:12.197Z,997.79
2022-10-28T01:58:22.716Z,997.80
2022-10-28T01:58:33.229Z,997.80
2022-10-28T01:58:43.769Z,997.80
2022-10-28T01:58:54.263Z,997.79
2022-10-28T01:59:04.785Z,997.80
2022-10-28T01:59:15.294Z,997.81
2022-10-28T01:59:25.821Z,997.81
2022-10-28T01:59:36.335Z,997.80
2022-10-28T01:59:46.847Z,997.80
2022-10-28T01:59:57.372Z,997.79
2022-10-28T02:00:07.887Z,997.78
2022-10-28T02:00:18.401Z,997.77
2022-10-28T02:00:29.018Z,997.77
2022-10-28T02:00:39.454Z,997.77
2022-10-28T02:00:50.019Z,997.77
2022-10-28T02:01:00.630Z,997.77
2022-10-28T02:01:11.217Z,997.77
2022-10-28T02:01:21.622Z,997.77
2022-10-28T02:01:32.245Z,997.77
2022-10-28T02:01:42.804Z,997.77
2022-10-28T02:01:53.218Z,997.76
2022-10-28T02:02:14.082Z,997.75
2022-10-28T02:02:24.613Z,997.75
2022-10-28T02:02:35.123Z,997.75
2022-10-28T02:02:45.635Z,997.76
2022-10-28T02:02:56.427Z,997.76
2022-10-28T02:03:06.664Z,997.76
2022-10-28T02:03:17.190Z,997.74
2022-10-28T02:03:27.707Z,997.74
2022-10-28T02:03:38.221Z,997.72
2022-10-28T02:03:48.734Z,997.72
2022-10-28T02:03:59.253Z,997.71
2022-10-28T02:04:09.763Z,997.71
2022-10-28T02:04:20.286Z,997.70
2022-10-28T02:04:30.799Z,997.69
2022-10-28T02:04:41.318Z,997.68
2022-10-28T02:04:51.841Z,997.67
2022-10-28T02:05:02.357Z,997.66
2022-10-28T02:05:12.906Z,997.65
2022-10-28T02:05:23.385Z,997.64
2022-10-28T02:05:33.908Z,997.63
2022-10-28T02:05:44.423Z,997.62
2022-10-28T02:05:54.938Z,997.62
2022-10-28T02:06:05.462Z,997.62
2022-10-28T02:06:15.977Z,997.61
2022-10-28T02:06:26.496Z,997.61
2022-10-28T02:06:37.099Z,997.61
2022-10-28T02:06:47.537Z,997.61
2022-10-28T02:06:58.051Z,997.60
2022-10-28T02:07:08.566Z,997.59
2022-10-28T02:07:19.085Z,997.60
2022-10-28T02:07:29.594Z,997.59
2022-10-28T02:07:40.116Z,997.59
2022-10-28T02:07:50.642Z,997.59
2022-10-28T02:08:01.158Z,997.58
2022-10-28T02:08:11.672Z,997.58
2022-10-28T02:08:22.195Z,997.58
2022-10-28T02:08:32.708Z,997.58
2022-10-28T02:08:43.230Z,997.57
2022-10-28T02:08:53.742Z,997.57
2022-10-28T02:09:04.273Z,997.58
2022-10-28T02:09:14.774Z,997.57
2022-10-28T02:09:25.310Z,997.58
2022-10-28T02:09:35.811Z,997.59
2022-10-28T02:09:46.328Z,997.59
2022-10-28T02:09:56.848Z,997.60
2022-10-28T02:10:07.377Z,997.60
2022-10-28T02:10:17.881Z,997.61
2022-10-28T02:10:28.399Z,997.61
2022-10-28T02:10:38.911Z,997.61
2022-10-28T02:10:49.430Z,997.60
2022-10-28T02:10:59.945Z,997.60
2022-10-28T02:11:10.464Z,997.60
2022-10-28T02:11:20.981Z,997.59